sensor_id;sensor_type;location;lat;lon;timestamp;P1;durP1;ratioP1;P2;durP2;ratioP2
41627;SDS011;27321;50.816;6.054;2024-01-10T00:01:09;6.87;;;3.70;;
41627;SDS011;27321;50.816;6.054;2024-01-10T00:04:10;7.00;;;4.40;;
41627;SDS011;27321;50.816;6.054;2024-01-10T00:07:11;9.40;;;4.55;;
41627;SDS011;27321;50.816;6.054;2024-01-10T00:10:12;11.60;;;5.00;;
41627;SDS011;27321;50.816;6.054;2024-01-10T00:13:16;9.35;;;4.40;;
41627;SDS011;27321;50.816;6.054;2024-01-10T00:16:20;8.20;;;4.60;;
41627;SDS011;27321;50.816;6.054;2024-01-10T00:19:21;9.25;;;4.80;;
41627;SDS011;27321;50.816;6.054;2024-01-10T00:22:22;6.20;;;3.10;;
41627;SDS011;27321;50.816;6.054;2024-01-10T00:25:23;7.35;;;4.53;;
41627;SDS011;27321;50.816;6.054;2024-01-10T00:28:24;7.73;;;3.57;;
41627;SDS011;27321;50.816;6.054;2024-01-10T00:31:26;7.43;;;4.20;;
41627;SDS011;27321;50.816;6.054;2024-01-10T00:34:27;7.35;;;4.40;;
41627;SDS011;27321;50.816;6.054;2024-01-10T00:37:28;9.20;;;4.47;;
41627;SDS011;27321;50.816;6.054;2024-01-10T00:40:29;11.07;;;5.30;;
41627;SDS011;27321;50.816;6.054;2024-01-10T00:43:30;10.93;;;5.33;;
41627;SDS011;27321;50.816;6.054;2024-01-10T00:46:31;7.07;;;4.47;;
41627;SDS011;27321;50.816;6.054;2024-01-10T00:49:32;9.97;;;5.33;;
41627;SDS011;27321;50.816;6.054;2024-01-10T00:52:33;8.25;;;4.90;;
41627;SDS011;27321;50.816;6.054;2024-01-10T00:55:33;8.83;;;4.57;;
41627;SDS011;27321;50.816;6.054;2024-01-10T00:58:35;7.47;;;4.00;;
41627;SDS011;27321;50.816;6.054;2024-01-10T01:01:36;7.10;;;3.95;;
41627;SDS011;27321;50.816;6.054;2024-01-10T01:04:37;9.27;;;5.37;;
41627;SDS011;27321;50.816;6.054;2024-01-10T01:07:38;10.55;;;4.97;;
41627;SDS011;27321;50.816;6.054;2024-01-10T01:10:39;11.97;;;6.10;;
41627;SDS011;27321;50.816;6.054;2024-01-10T01:13:40;14.07;;;6.10;;
41627;SDS011;27321;50.816;6.054;2024-01-10T01:16:41;9.97;;;5.60;;
41627;SDS011;27321;50.816;6.054;2024-01-10T01:19:42;10.65;;;5.30;;
41627;SDS011;27321;50.816;6.054;2024-01-10T01:22:43;10.00;;;5.13;;
41627;SDS011;27321;50.816;6.054;2024-01-10T01:25:44;10.23;;;5.53;;
41627;SDS011;27321;50.816;6.054;2024-01-10T01:28:45;11.43;;;5.70;;
41627;SDS011;27321;50.816;6.054;2024-01-10T01:31:46;9.43;;;5.17;;
41627;SDS011;27321;50.816;6.054;2024-01-10T01:34:47;10.15;;;6.05;;
41627;SDS011;27321;50.816;6.054;2024-01-10T01:37:48;11.77;;;5.93;;
41627;SDS011;27321;50.816;6.054;2024-01-10T01:40:49;9.52;;;5.00;;
41627;SDS011;27321;50.816;6.054;2024-01-10T01:43:50;10.97;;;5.30;;
41627;SDS011;27321;50.816;6.054;2024-01-10T01:46:51;8.43;;;4.32;;
41627;SDS011;27321;50.816;6.054;2024-01-10T01:49:52;10.87;;;4.80;;
41627;SDS011;27321;50.816;6.054;2024-01-10T01:52:54;9.15;;;4.50;;
41627;SDS011;27321;50.816;6.054;2024-01-10T01:55:55;8.52;;;4.07;;
41627;SDS011;27321;50.816;6.054;2024-01-10T01:58:56;8.00;;;3.97;;
41627;SDS011;27321;50.816;6.054;2024-01-10T02:01:57;7.90;;;4.25;;
41627;SDS011;27321;50.816;6.054;2024-01-10T02:05:05;8.03;;;3.83;;
41627;SDS011;27321;50.816;6.054;2024-01-10T02:08:08;7.03;;;3.87;;
41627;SDS011;27321;50.816;6.054;2024-01-10T02:11:09;7.80;;;4.40;;
41627;SDS011;27321;50.816;6.054;2024-01-10T02:14:10;7.97;;;4.05;;
41627;SDS011;27321;50.816;6.054;2024-01-10T02:17:12;8.33;;;4.20;;
41627;SDS011;27321;50.816;6.054;2024-01-10T02:20:14;6.65;;;3.63;;
41627;SDS011;27321;50.816;6.054;2024-01-10T02:23:22;7.07;;;3.80;;
41627;SDS011;27321;50.816;6.054;2024-01-10T02:26:23;7.77;;;3.77;;
41627;SDS011;27321;50.816;6.054;2024-01-10T02:29:24;5.50;;;2.95;;
41627;SDS011;27321;50.816;6.054;2024-01-10T02:32:25;5.13;;;3.58;;
41627;SDS011;27321;50.816;6.054;2024-01-10T02:35:27;10.07;;;3.70;;
41627;SDS011;27321;50.816;6.054;2024-01-10T02:38:28;7.32;;;4.03;;
41627;SDS011;27321;50.816;6.054;2024-01-10T02:41:29;6.60;;;3.42;;
41627;SDS011;27321;50.816;6.054;2024-01-10T02:44:30;8.35;;;4.05;;
41627;SDS011;27321;50.816;6.054;2024-01-10T02:47:31;7.97;;;4.57;;
41627;SDS011;27321;50.816;6.054;2024-01-10T02:50:32;6.47;;;3.67;;
41627;SDS011;27321;50.816;6.054;2024-01-10T02:53:33;5.33;;;2.97;;
41627;SDS011;27321;50.816;6.054;2024-01-10T02:56:36;7.07;;;3.80;;
41627;SDS011;27321;50.816;6.054;2024-01-10T02:59:38;8.63;;;3.57;;
41627;SDS011;27321;50.816;6.054;2024-01-10T03:02:39;8.75;;;3.50;;
41627;SDS011;27321;50.816;6.054;2024-01-10T03:08:42;6.03;;;3.73;;
41627;SDS011;27321;50.816;6.054;2024-01-10T03:11:43;5.07;;;2.83;;
41627;SDS011;27321;50.816;6.054;2024-01-10T03:14:44;7.40;;;4.00;;
41627;SDS011;27321;50.816;6.054;2024-01-10T03:17:45;5.75;;;3.72;;
41627;SDS011;27321;50.816;6.054;2024-01-10T03:20:46;7.30;;;4.13;;
41627;SDS011;27321;50.816;6.054;2024-01-10T03:23:47;8.40;;;4.40;;
41627;SDS011;27321;50.816;6.054;2024-01-10T03:26:48;7.57;;;4.00;;
41627;SDS011;27321;50.816;6.054;2024-01-10T03:29:51;11.87;;;4.87;;
41627;SDS011;27321;50.816;6.054;2024-01-10T03:32:52;9.15;;;4.65;;
41627;SDS011;27321;50.816;6.054;2024-01-10T03:35:53;10.63;;;5.57;;
41627;SDS011;27321;50.816;6.054;2024-01-10T03:38:54;11.10;;;5.53;;
41627;SDS011;27321;50.816;6.054;2024-01-10T03:41:55;11.05;;;5.95;;
41627;SDS011;27321;50.816;6.054;2024-01-10T03:44:56;11.60;;;5.85;;
41627;SDS011;27321;50.816;6.054;2024-01-10T03:47:57;13.02;;;6.05;;
41627;SDS011;27321;50.816;6.054;2024-01-10T03:50:58;12.60;;;5.60;;
41627;SDS011;27321;50.816;6.054;2024-01-10T03:53:59;11.48;;;5.93;;
41627;SDS011;27321;50.816;6.054;2024-01-10T03:57:02;10.47;;;6.00;;
41627;SDS011;27321;50.816;6.054;2024-01-10T04:00:05;12.85;;;6.00;;
41627;SDS011;27321;50.816;6.054;2024-01-10T04:03:07;13.30;;;5.50;;
41627;SDS011;27321;50.816;6.054;2024-01-10T04:06:08;10.57;;;5.63;;
41627;SDS011;27321;50.816;6.054;2024-01-10T04:09:09;11.32;;;5.82;;
41627;SDS011;27321;50.816;6.054;2024-01-10T04:12:11;9.03;;;5.37;;
41627;SDS011;27321;50.816;6.054;2024-01-10T04:15:12;9.18;;;4.80;;
41627;SDS011;27321;50.816;6.054;2024-01-10T04:18:13;7.80;;;4.13;;
41627;SDS011;27321;50.816;6.054;2024-01-10T04:21:15;5.78;;;3.17;;
41627;SDS011;27321;50.816;6.054;2024-01-10T04:24:16;10.50;;;5.22;;
41627;SDS011;27321;50.816;6.054;2024-01-10T04:27:17;11.32;;;4.97;;
41627;SDS011;27321;50.816;6.054;2024-01-10T04:30:18;10.57;;;5.53;;
41627;SDS011;27321;50.816;6.054;2024-01-10T04:33:19;8.70;;;4.07;;
41627;SDS011;27321;50.816;6.054;2024-01-10T04:36:20;11.52;;;5.03;;
41627;SDS011;27321;50.816;6.054;2024-01-10T04:39:21;9.35;;;4.53;;
41627;SDS011;27321;50.816;6.054;2024-01-10T04:42:22;10.53;;;4.40;;
41627;SDS011;27321;50.816;6.054;2024-01-10T04:45:23;7.68;;;4.30;;
41627;SDS011;27321;50.816;6.054;2024-01-10T04:48:24;7.60;;;4.20;;
41627;SDS011;27321;50.816;6.054;2024-01-10T04:51:25;7.50;;;4.10;;
41627;SDS011;27321;50.816;6.054;2024-01-10T04:54:26;8.45;;;3.88;;
41627;SDS011;27321;50.816;6.054;2024-01-10T04:57:27;9.15;;;4.05;;
41627;SDS011;27321;50.816;6.054;2024-01-10T05:00:28;7.40;;;3.97;;
41627;SDS011;27321;50.816;6.054;2024-01-10T05:03:32;8.00;;;3.83;;
41627;SDS011;27321;50.816;6.054;2024-01-10T05:06:33;5.90;;;2.90;;
41627;SDS011;27321;50.816;6.054;2024-01-10T05:09:34;5.90;;;3.45;;
41627;SDS011;27321;50.816;6.054;2024-01-10T05:12:35;8.27;;;4.25;;
41627;SDS011;27321;50.816;6.054;2024-01-10T05:15:38;7.07;;;3.60;;
41627;SDS011;27321;50.816;6.054;2024-01-10T05:18:39;7.85;;;3.78;;
41627;SDS011;27321;50.816;6.054;2024-01-10T05:21:40;6.45;;;3.47;;
41627;SDS011;27321;50.816;6.054;2024-01-10T05:24:45;6.85;;;4.07;;
41627;SDS011;27321;50.816;6.054;2024-01-10T05:27:47;8.70;;;4.30;;
41627;SDS011;27321;50.816;6.054;2024-01-10T05:30:48;9.63;;;4.57;;
41627;SDS011;27321;50.816;6.054;2024-01-10T05:33:49;8.57;;;4.32;;
41627;SDS011;27321;50.816;6.054;2024-01-10T05:36:50;7.40;;;4.20;;
41627;SDS011;27321;50.816;6.054;2024-01-10T05:39:51;8.05;;;4.32;;
41627;SDS011;27321;50.816;6.054;2024-01-10T05:42:52;8.10;;;4.20;;
41627;SDS011;27321;50.816;6.054;2024-01-10T05:45:53;6.90;;;3.80;;
41627;SDS011;27321;50.816;6.054;2024-01-10T05:48:54;8.63;;;4.35;;
41627;SDS011;27321;50.816;6.054;2024-01-10T05:51:56;9.55;;;4.82;;
41627;SDS011;27321;50.816;6.054;2024-01-10T05:54:56;11.40;;;6.57;;
41627;SDS011;27321;50.816;6.054;2024-01-10T05:57:58;11.07;;;5.90;;
41627;SDS011;27321;50.816;6.054;2024-01-10T06:00:59;9.98;;;5.78;;
41627;SDS011;27321;50.816;6.054;2024-01-10T06:04:00;12.05;;;5.85;;
41627;SDS011;27321;50.816;6.054;2024-01-10T06:07:07;12.07;;;6.00;;
41627;SDS011;27321;50.816;6.054;2024-01-10T06:10:13;10.40;;;5.97;;
41627;SDS011;27321;50.816;6.054;2024-01-10T06:13:14;14.77;;;5.88;;
41627;SDS011;27321;50.816;6.054;2024-01-10T06:16:16;11.73;;;6.03;;
41627;SDS011;27321;50.816;6.054;2024-01-10T06:19:17;10.20;;;5.55;;
41627;SDS011;27321;50.816;6.054;2024-01-10T06:22:18;11.98;;;5.53;;
41627;SDS011;27321;50.816;6.054;2024-01-10T06:25:25;10.40;;;5.00;;
41627;SDS011;27321;50.816;6.054;2024-01-10T06:28:26;9.25;;;5.00;;
41627;SDS011;27321;50.816;6.054;2024-01-10T06:31:27;8.90;;;4.77;;
41627;SDS011;27321;50.816;6.054;2024-01-10T06:34:31;10.25;;;4.97;;
41627;SDS011;27321;50.816;6.054;2024-01-10T06:37:33;10.23;;;5.77;;
41627;SDS011;27321;50.816;6.054;2024-01-10T06:40:35;9.85;;;5.55;;
41627;SDS011;27321;50.816;6.054;2024-01-10T06:43:37;9.63;;;5.30;;
41627;SDS011;27321;50.816;6.054;2024-01-10T06:46:38;11.30;;;5.40;;
41627;SDS011;27321;50.816;6.054;2024-01-10T06:49:42;10.30;;;5.77;;
41627;SDS011;27321;50.816;6.054;2024-01-10T06:52:43;9.80;;;5.03;;
41627;SDS011;27321;50.816;6.054;2024-01-10T06:55:44;9.67;;;5.23;;
41627;SDS011;27321;50.816;6.054;2024-01-10T06:58:45;7.50;;;3.38;;
41627;SDS011;27321;50.816;6.054;2024-01-10T07:01:50;8.75;;;4.65;;
41627;SDS011;27321;50.816;6.054;2024-01-10T07:04:59;7.43;;;4.17;;
41627;SDS011;27321;50.816;6.054;2024-01-10T07:08:02;8.63;;;4.03;;
41627;SDS011;27321;50.816;6.054;2024-01-10T07:11:04;7.87;;;4.07;;
41627;SDS011;27321;50.816;6.054;2024-01-10T07:14:05;11.40;;;4.03;;
41627;SDS011;27321;50.816;6.054;2024-01-10T07:17:07;7.88;;;3.97;;
41627;SDS011;27321;50.816;6.054;2024-01-10T07:20:10;8.37;;;4.70;;
41627;SDS011;27321;50.816;6.054;2024-01-10T07:26:13;9.90;;;4.83;;
41627;SDS011;27321;50.816;6.054;2024-01-10T07:29:16;9.20;;;4.50;;
41627;SDS011;27321;50.816;6.054;2024-01-10T07:32:20;10.90;;;5.23;;
41627;SDS011;27321;50.816;6.054;2024-01-10T07:35:21;9.13;;;3.90;;
41627;SDS011;27321;50.816;6.054;2024-01-10T07:38:22;9.43;;;4.55;;
41627;SDS011;27321;50.816;6.054;2024-01-10T07:41:23;8.43;;;4.55;;
41627;SDS011;27321;50.816;6.054;2024-01-10T07:44:25;9.50;;;4.50;;
41627;SDS011;27321;50.816;6.054;2024-01-10T07:47:28;7.23;;;4.00;;
41627;SDS011;27321;50.816;6.054;2024-01-10T07:50:35;7.53;;;4.00;;
41627;SDS011;27321;50.816;6.054;2024-01-10T07:53:36;8.80;;;4.40;;
41627;SDS011;27321;50.816;6.054;2024-01-10T07:56:37;8.57;;;4.00;;
41627;SDS011;27321;50.816;6.054;2024-01-10T07:59:39;8.30;;;4.20;;
41627;SDS011;27321;50.816;6.054;2024-01-10T08:02:44;7.23;;;3.97;;
41627;SDS011;27321;50.816;6.054;2024-01-10T08:05:44;9.80;;;4.80;;
41627;SDS011;27321;50.816;6.054;2024-01-10T08:08:46;8.75;;;4.32;;
41627;SDS011;27321;50.816;6.054;2024-01-10T08:11:47;11.13;;;5.00;;
41627;SDS011;27321;50.816;6.054;2024-01-10T08:14:48;8.50;;;3.77;;
41627;SDS011;27321;50.816;6.054;2024-01-10T08:17:53;10.95;;;4.85;;
41627;SDS011;27321;50.816;6.054;2024-01-10T08:20:54;8.97;;;5.57;;
41627;SDS011;27321;50.816;6.054;2024-01-10T08:23:55;10.50;;;5.32;;
41627;SDS011;27321;50.816;6.054;2024-01-10T08:26:56;9.95;;;5.20;;
41627;SDS011;27321;50.816;6.054;2024-01-10T08:29:57;9.43;;;5.40;;
41627;SDS011;27321;50.816;6.054;2024-01-10T10:45:31;15.47;;;7.87;;
41627;SDS011;27321;50.816;6.054;2024-01-10T10:48:34;14.90;;;7.80;;
41627;SDS011;27321;50.816;6.054;2024-01-10T10:51:35;15.27;;;8.70;;
41627;SDS011;27321;50.816;6.054;2024-01-10T10:54:37;16.20;;;8.45;;
41627;SDS011;27321;50.816;6.054;2024-01-10T11:00:42;18.93;;;8.67;;
41627;SDS011;27321;50.816;6.054;2024-01-10T11:03:44;17.90;;;8.33;;
41627;SDS011;27321;50.816;6.054;2024-01-10T11:06:47;17.33;;;8.77;;
41627;SDS011;27321;50.816;6.054;2024-01-10T11:09:48;16.80;;;9.20;;
41627;SDS011;27321;50.816;6.054;2024-01-10T11:26:22;19.23;;;9.23;;
41627;SDS011;27321;50.816;6.054;2024-01-10T11:29:23;18.40;;;9.40;;
41627;SDS011;27321;50.816;6.054;2024-01-10T11:32:29;18.30;;;9.73;;
41627;SDS011;27321;50.816;6.054;2024-01-10T11:35:34;22.43;;;10.80;;
41627;SDS011;27321;50.816;6.054;2024-01-10T11:38:54;25.27;;;10.47;;
41627;SDS011;27321;50.816;6.054;2024-01-10T11:42:03;19.27;;;9.37;;
41627;SDS011;27321;50.816;6.054;2024-01-10T11:45:04;15.15;;;7.88;;
41627;SDS011;27321;50.816;6.054;2024-01-10T11:48:31;18.27;;;9.50;;
41627;SDS011;27321;50.816;6.054;2024-01-10T11:52:22;19.53;;;9.40;;
41627;SDS011;27321;50.816;6.054;2024-01-10T11:55:51;16.27;;;9.77;;
41627;SDS011;27321;50.816;6.054;2024-01-10T11:59:01;20.43;;;9.37;;
41627;SDS011;27321;50.816;6.054;2024-01-10T12:02:12;18.13;;;9.97;;
41627;SDS011;27321;50.816;6.054;2024-01-10T12:05:16;17.30;;;9.37;;
41627;SDS011;27321;50.816;6.054;2024-01-10T12:08:19;19.80;;;10.27;;
41627;SDS011;27321;50.816;6.054;2024-01-10T12:11:21;16.88;;;8.70;;
41627;SDS011;27321;50.816;6.054;2024-01-10T12:14:22;16.50;;;9.05;;
41627;SDS011;27321;50.816;6.054;2024-01-10T12:17:26;18.02;;;8.77;;
41627;SDS011;27321;50.816;6.054;2024-01-10T12:20:29;21.27;;;9.57;;
41627;SDS011;27321;50.816;6.054;2024-01-10T12:23:30;20.27;;;10.30;;
41627;SDS011;27321;50.816;6.054;2024-01-10T12:26:32;18.17;;;9.27;;
41627;SDS011;27321;50.816;6.054;2024-01-10T12:29:33;20.65;;;9.90;;
41627;SDS011;27321;50.816;6.054;2024-01-10T12:32:34;17.77;;;8.83;;
41627;SDS011;27321;50.816;6.054;2024-01-10T12:35:35;24.30;;;10.10;;
41627;SDS011;27321;50.816;6.054;2024-01-10T12:38:38;19.80;;;10.33;;
41627;SDS011;27321;50.816;6.054;2024-01-10T12:41:40;20.45;;;10.25;;
41627;SDS011;27321;50.816;6.054;2024-01-10T12:44:44;20.17;;;11.03;;
41627;SDS011;27321;50.816;6.054;2024-01-10T12:47:46;20.10;;;10.43;;
41627;SDS011;27321;50.816;6.054;2024-01-10T12:50:51;22.10;;;10.77;;
41627;SDS011;27321;50.816;6.054;2024-01-10T12:53:52;21.53;;;10.37;;
41627;SDS011;27321;50.816;6.054;2024-01-10T12:56:53;20.17;;;11.07;;
41627;SDS011;27321;50.816;6.054;2024-01-10T12:59:54;20.83;;;10.33;;
41627;SDS011;27321;50.816;6.054;2024-01-10T13:02:55;19.00;;;10.50;;
41627;SDS011;27321;50.816;6.054;2024-01-10T13:05:56;18.47;;;9.73;;
41627;SDS011;27321;50.816;6.054;2024-01-10T13:08:56;24.37;;;10.60;;
41627;SDS011;27321;50.816;6.054;2024-01-10T13:11:58;19.73;;;11.60;;
41627;SDS011;27321;50.816;6.054;2024-01-10T13:14:59;22.63;;;11.57;;
41627;SDS011;27321;50.816;6.054;2024-01-10T13:18:02;21.20;;;10.83;;
41627;SDS011;27321;50.816;6.054;2024-01-10T13:21:03;15.00;;;7.60;;
41627;SDS011;27321;50.816;6.054;2024-01-10T13:24:05;23.25;;;10.82;;
41627;SDS011;27321;50.816;6.054;2024-01-10T13:27:06;21.13;;;11.15;;
41627;SDS011;27321;50.816;6.054;2024-01-10T13:30:07;21.37;;;11.43;;
41627;SDS011;27321;50.816;6.054;2024-01-10T13:33:12;23.67;;;11.47;;
41627;SDS011;27321;50.816;6.054;2024-01-10T13:36:13;22.58;;;10.50;;
41627;SDS011;27321;50.816;6.054;2024-01-10T13:39:14;20.33;;;10.02;;
41627;SDS011;27321;50.816;6.054;2024-01-10T13:42:15;18.43;;;9.33;;
41627;SDS011;27321;50.816;6.054;2024-01-10T13:45:16;21.67;;;10.40;;
41627;SDS011;27321;50.816;6.054;2024-01-10T13:48:17;17.45;;;10.48;;
41627;SDS011;27321;50.816;6.054;2024-01-10T13:51:18;20.53;;;10.57;;
41627;SDS011;27321;50.816;6.054;2024-01-10T13:54:19;18.17;;;10.57;;
41627;SDS011;27321;50.816;6.054;2024-01-10T13:57:21;18.63;;;10.33;;
41627;SDS011;27321;50.816;6.054;2024-01-10T14:00:22;22.13;;;10.57;;
41627;SDS011;27321;50.816;6.054;2024-01-10T14:03:23;17.67;;;9.37;;
41627;SDS011;27321;50.816;6.054;2024-01-10T14:06:24;18.40;;;10.10;;
41627;SDS011;27321;50.816;6.054;2024-01-10T14:09:25;20.33;;;10.23;;
41627;SDS011;27321;50.816;6.054;2024-01-10T14:12:27;14.63;;;7.57;;
41627;SDS011;27321;50.816;6.054;2024-01-10T14:15:29;16.80;;;8.97;;
41627;SDS011;27321;50.816;6.054;2024-01-10T14:18:30;18.47;;;10.17;;
41627;SDS011;27321;50.816;6.054;2024-01-10T14:21:31;16.40;;;9.57;;
41627;SDS011;27321;50.816;6.054;2024-01-10T14:24:33;19.38;;;9.20;;
41627;SDS011;27321;50.816;6.054;2024-01-10T14:27:34;18.07;;;8.80;;
41627;SDS011;27321;50.816;6.054;2024-01-10T14:30:35;17.33;;;9.13;;
41627;SDS011;27321;50.816;6.054;2024-01-10T14:33:36;14.83;;;8.40;;
41627;SDS011;27321;50.816;6.054;2024-01-10T14:36:37;16.00;;;8.90;;
41627;SDS011;27321;50.816;6.054;2024-01-10T14:39:38;16.23;;;8.27;;
41627;SDS011;27321;50.816;6.054;2024-01-10T14:42:39;18.53;;;9.63;;
41627;SDS011;27321;50.816;6.054;2024-01-10T14:45:40;15.83;;;8.73;;
41627;SDS011;27321;50.816;6.054;2024-01-10T14:48:40;15.90;;;8.60;;
41627;SDS011;27321;50.816;6.054;2024-01-10T14:51:41;16.23;;;8.63;;
41627;SDS011;27321;50.816;6.054;2024-01-10T14:54:42;17.30;;;8.73;;
41627;SDS011;27321;50.816;6.054;2024-01-10T14:57:44;22.52;;;9.82;;
41627;SDS011;27321;50.816;6.054;2024-01-10T15:00:45;17.27;;;8.27;;
41627;SDS011;27321;50.816;6.054;2024-01-10T15:03:46;20.08;;;9.48;;
41627;SDS011;27321;50.816;6.054;2024-01-10T15:06:47;15.63;;;8.10;;
41627;SDS011;27321;50.816;6.054;2024-01-10T15:09:48;15.70;;;8.07;;
41627;SDS011;27321;50.816;6.054;2024-01-10T15:12:49;14.77;;;7.63;;
41627;SDS011;27321;50.816;6.054;2024-01-10T15:15:49;13.27;;;7.03;;
41627;SDS011;27321;50.816;6.054;2024-01-10T15:18:50;15.93;;;7.97;;
41627;SDS011;27321;50.816;6.054;2024-01-10T15:21:51;14.00;;;7.57;;
41627;SDS011;27321;50.816;6.054;2024-01-10T15:24:52;13.77;;;7.60;;
41627;SDS011;27321;50.816;6.054;2024-01-10T15:27:53;18.50;;;8.53;;
41627;SDS011;27321;50.816;6.054;2024-01-10T15:30:54;20.40;;;8.40;;
41627;SDS011;27321;50.816;6.054;2024-01-10T15:33:55;16.10;;;8.07;;
41627;SDS011;27321;50.816;6.054;2024-01-10T15:36:56;17.30;;;8.30;;
41627;SDS011;27321;50.816;6.054;2024-01-10T15:39:57;18.77;;;8.90;;
41627;SDS011;27321;50.816;6.054;2024-01-10T15:42:58;20.43;;;9.47;;
41627;SDS011;27321;50.816;6.054;2024-01-10T15:45:59;19.57;;;9.60;;
41627;SDS011;27321;50.816;6.054;2024-01-10T15:49:00;15.13;;;7.53;;
41627;SDS011;27321;50.816;6.054;2024-01-10T15:52:02;16.83;;;8.57;;
41627;SDS011;27321;50.816;6.054;2024-01-10T15:55:03;14.85;;;8.25;;
41627;SDS011;27321;50.816;6.054;2024-01-10T16:01:07;17.85;;;10.00;;
41627;SDS011;27321;50.816;6.054;2024-01-10T16:04:08;16.97;;;10.33;;
41627;SDS011;27321;50.816;6.054;2024-01-10T16:07:12;18.90;;;8.90;;
41627;SDS011;27321;50.816;6.054;2024-01-10T16:10:13;17.07;;;9.00;;
41627;SDS011;27321;50.816;6.054;2024-01-10T16:13:14;16.83;;;8.50;;
41627;SDS011;27321;50.816;6.054;2024-01-10T16:16:15;16.10;;;8.27;;
41627;SDS011;27321;50.816;6.054;2024-01-10T16:19:22;15.00;;;8.20;;
41627;SDS011;27321;50.816;6.054;2024-01-10T16:22:23;15.55;;;8.82;;
41627;SDS011;27321;50.816;6.054;2024-01-10T16:25:25;16.95;;;9.73;;
41627;SDS011;27321;50.816;6.054;2024-01-10T16:28:25;17.80;;;9.15;;
41627;SDS011;27321;50.816;6.054;2024-01-10T16:31:26;18.83;;;9.83;;
41627;SDS011;27321;50.816;6.054;2024-01-10T16:34:27;19.50;;;10.13;;
41627;SDS011;27321;50.816;6.054;2024-01-10T16:37:29;22.60;;;10.33;;
41627;SDS011;27321;50.816;6.054;2024-01-10T16:40:30;16.73;;;9.15;;
41627;SDS011;27321;50.816;6.054;2024-01-10T16:43:31;20.92;;;11.25;;
41627;SDS011;27321;50.816;6.054;2024-01-10T16:46:32;21.43;;;11.30;;
41627;SDS011;27321;50.816;6.054;2024-01-10T16:49:33;17.85;;;9.57;;
41627;SDS011;27321;50.816;6.054;2024-01-10T16:52:34;21.50;;;9.90;;
41627;SDS011;27321;50.816;6.054;2024-01-10T16:55:35;17.35;;;8.75;;
41627;SDS011;27321;50.816;6.054;2024-01-10T16:58:36;23.77;;;10.10;;
41627;SDS011;27321;50.816;6.054;2024-01-10T17:01:37;24.33;;;12.17;;
41627;SDS011;27321;50.816;6.054;2024-01-10T17:04:38;21.03;;;11.03;;
41627;SDS011;27321;50.816;6.054;2024-01-10T17:07:42;21.10;;;10.03;;
41627;SDS011;27321;50.816;6.054;2024-01-10T17:10:43;17.13;;;8.77;;
41627;SDS011;27321;50.816;6.054;2024-01-10T17:13:44;18.77;;;9.60;;
41627;SDS011;27321;50.816;6.054;2024-01-10T17:16:45;18.93;;;9.63;;
41627;SDS011;27321;50.816;6.054;2024-01-10T17:19:46;11.70;;;6.23;;
41627;SDS011;27321;50.816;6.054;2024-01-10T17:22:47;18.10;;;9.97;;
41627;SDS011;27321;50.816;6.054;2024-01-10T17:25:48;21.73;;;9.47;;
41627;SDS011;27321;50.816;6.054;2024-01-10T17:28:49;15.38;;;8.38;;
41627;SDS011;27321;50.816;6.054;2024-01-10T17:31:51;15.93;;;8.40;;
41627;SDS011;27321;50.816;6.054;2024-01-10T17:34:54;16.00;;;10.07;;
41627;SDS011;27321;50.816;6.054;2024-01-10T17:37:55;17.63;;;11.70;;
41627;SDS011;27321;50.816;6.054;2024-01-10T17:40:56;21.63;;;13.23;;
41627;SDS011;27321;50.816;6.054;2024-01-10T17:43:57;22.33;;;14.10;;
41627;SDS011;27321;50.816;6.054;2024-01-10T17:46:59;19.95;;;12.63;;
41627;SDS011;27321;50.816;6.054;2024-01-10T17:50:00;21.67;;;13.40;;
41627;SDS011;27321;50.816;6.054;2024-01-10T17:53:03;24.60;;;13.03;;
41627;SDS011;27321;50.816;6.054;2024-01-10T17:56:05;23.63;;;13.47;;
41627;SDS011;27321;50.816;6.054;2024-01-10T17:59:07;24.73;;;15.37;;
41627;SDS011;27321;50.816;6.054;2024-01-10T18:02:08;20.60;;;12.33;;
41627;SDS011;27321;50.816;6.054;2024-01-10T18:05:09;13.60;;;8.73;;
41627;SDS011;27321;50.816;6.054;2024-01-10T18:08:10;19.13;;;10.90;;
41627;SDS011;27321;50.816;6.054;2024-01-10T18:11:11;17.43;;;8.63;;
41627;SDS011;27321;50.816;6.054;2024-01-10T18:14:12;21.17;;;11.30;;
41627;SDS011;27321;50.816;6.054;2024-01-10T18:17:14;17.02;;;10.32;;
41627;SDS011;27321;50.816;6.054;2024-01-10T18:20:15;19.40;;;10.75;;
41627;SDS011;27321;50.816;6.054;2024-01-10T18:23:16;19.23;;;10.68;;
41627;SDS011;27321;50.816;6.054;2024-01-10T18:26:17;18.30;;;10.23;;
41627;SDS011;27321;50.816;6.054;2024-01-10T18:29:18;22.97;;;19.97;;
41627;SDS011;27321;50.816;6.054;2024-01-10T18:32:19;15.57;;;8.68;;
41627;SDS011;27321;50.816;6.054;2024-01-10T18:35:20;16.17;;;8.68;;
41627;SDS011;27321;50.816;6.054;2024-01-10T18:38:21;17.90;;;9.10;;
41627;SDS011;27321;50.816;6.054;2024-01-10T18:41:22;17.00;;;8.65;;
41627;SDS011;27321;50.816;6.054;2024-01-10T18:44:25;17.70;;;8.47;;
41627;SDS011;27321;50.816;6.054;2024-01-10T18:50:28;18.47;;;9.00;;
41627;SDS011;27321;50.816;6.054;2024-01-10T18:53:29;19.27;;;9.95;;
41627;SDS011;27321;50.816;6.054;2024-01-10T18:59:32;17.33;;;9.63;;
41627;SDS011;27321;50.816;6.054;2024-01-10T19:02:33;21.07;;;10.57;;
41627;SDS011;27321;50.816;6.054;2024-01-10T19:05:34;16.13;;;8.73;;
41627;SDS011;27321;50.816;6.054;2024-01-10T19:08:35;15.63;;;7.20;;
41627;SDS011;27321;50.816;6.054;2024-01-10T19:11:36;16.17;;;9.07;;
41627;SDS011;27321;50.816;6.054;2024-01-10T19:14:37;20.37;;;10.30;;
41627;SDS011;27321;50.816;6.054;2024-01-10T19:17:38;24.07;;;11.70;;
41627;SDS011;27321;50.816;6.054;2024-01-10T19:20:39;23.55;;;11.43;;
41627;SDS011;27321;50.816;6.054;2024-01-10T19:23:40;21.52;;;11.35;;
41627;SDS011;27321;50.816;6.054;2024-01-10T19:26:44;20.43;;;10.53;;
41627;SDS011;27321;50.816;6.054;2024-01-10T19:29:46;19.40;;;9.40;;
41627;SDS011;27321;50.816;6.054;2024-01-10T19:32:48;19.08;;;9.63;;
41627;SDS011;27321;50.816;6.054;2024-01-10T19:35:50;16.10;;;8.60;;
41627;SDS011;27321;50.816;6.054;2024-01-10T19:38:51;15.15;;;8.00;;
41627;SDS011;27321;50.816;6.054;2024-01-10T19:41:53;15.07;;;8.30;;
41627;SDS011;27321;50.816;6.054;2024-01-10T19:44:54;14.13;;;7.80;;
41627;SDS011;27321;50.816;6.054;2024-01-10T19:47:58;15.30;;;7.43;;
41627;SDS011;27321;50.816;6.054;2024-01-10T19:50:59;15.27;;;7.70;;
41627;SDS011;27321;50.816;6.054;2024-01-10T19:54:02;14.33;;;7.40;;
41627;SDS011;27321;50.816;6.054;2024-01-10T19:57:04;13.80;;;7.40;;
41627;SDS011;27321;50.816;6.054;2024-01-10T20:00:05;13.38;;;6.90;;
41627;SDS011;27321;50.816;6.054;2024-01-10T20:03:08;14.87;;;7.53;;
41627;SDS011;27321;50.816;6.054;2024-01-10T20:06:11;11.77;;;6.67;;
41627;SDS011;27321;50.816;6.054;2024-01-10T20:12:15;14.65;;;8.18;;
41627;SDS011;27321;50.816;6.054;2024-01-10T20:15:16;18.70;;;8.87;;
41627;SDS011;27321;50.816;6.054;2024-01-10T20:18:17;14.77;;;8.20;;
41627;SDS011;27321;50.816;6.054;2024-01-10T20:21:18;15.23;;;7.53;;
41627;SDS011;27321;50.816;6.054;2024-01-10T20:24:19;14.60;;;7.47;;
41627;SDS011;27321;50.816;6.054;2024-01-10T20:27:20;14.77;;;7.60;;
41627;SDS011;27321;50.816;6.054;2024-01-10T20:30:21;14.20;;;7.37;;
41627;SDS011;27321;50.816;6.054;2024-01-10T20:33:22;15.33;;;7.70;;
41627;SDS011;27321;50.816;6.054;2024-01-10T20:36:23;16.03;;;8.07;;
41627;SDS011;27321;50.816;6.054;2024-01-10T20:39:24;16.13;;;9.10;;
41627;SDS011;27321;50.816;6.054;2024-01-10T20:42:25;15.45;;;7.72;;
41627;SDS011;27321;50.816;6.054;2024-01-10T20:45:30;18.17;;;8.13;;
41627;SDS011;27321;50.816;6.054;2024-01-10T20:48:31;21.40;;;9.03;;